Map

Track Data

SID SEASON NUMBER BASIN SUBBASIN NAME ISO_TIME NATURE LAT LON WMO_WIND WMO_PRES WMO_AGENCY TRACK_TYPE DIST2LAND LANDFALL IFLAG USA_AGENCY USA_ATCF_ID USA_LAT USA_LON USA_RECORD USA_STATUS USA_WIND USA_PRES USA_SSHS USA_R34_NE USA_R34_SE USA_R34_SW USA_R34_NW USA_R50_NE USA_R50_SE USA_R50_SW USA_R50_NW USA_R64_NE USA_R64_SE USA_R64_SW USA_R64_NW USA_POCI USA_ROCI USA_RMW USA_EYE TOKYO_LAT TOKYO_LON TOKYO_GRADE TOKYO_WIND TOKYO_PRES TOKYO_R50_DIR TOKYO_R50_LONG TOKYO_R50_SHORT TOKYO_R30_DIR TOKYO_R30_LONG TOKYO_R30_SHORT TOKYO_LAND CMA_LAT CMA_LON CMA_CAT CMA_WIND CMA_PRES HKO_LAT HKO_LON HKO_CAT HKO_WIND HKO_PRES NEWDELHI_LAT NEWDELHI_LON NEWDELHI_GRADE NEWDELHI_WIND NEWDELHI_PRES NEWDELHI_CI NEWDELHI_DP NEWDELHI_POCI REUNION_LAT REUNION_LON REUNION_TYPE REUNION_WIND REUNION_PRES REUNION_TNUM REUNION_CI REUNION_RMW REUNION_R34_NE REUNION_R34_SE REUNION_R34_SW REUNION_R34_NW REUNION_R50_NE REUNION_R50_SE REUNION_R50_SW REUNION_R50_NW REUNION_R64_NE REUNION_R64_SE REUNION_R64_SW REUNION_R64_NW BOM_LAT BOM_LON BOM_TYPE BOM_WIND BOM_PRES BOM_TNUM BOM_CI BOM_RMW BOM_R34_NE BOM_R34_SE BOM_R34_SW BOM_R34_NW BOM_R50_NE BOM_R50_SE BOM_R50_SW BOM_R50_NW BOM_R64_NE BOM_R64_SE BOM_R64_SW BOM_R64_NW BOM_ROCI BOM_POCI BOM_EYE BOM_POS_METHOD BOM_PRES_METHOD NADI_LAT NADI_LON NADI_CAT NADI_WIND NADI_PRES WELLINGTON_LAT WELLINGTON_LON WELLINGTON_WIND WELLINGTON_PRES DS824_LAT DS824_LON DS824_STAGE DS824_WIND DS824_PRES TD9636_LAT TD9636_LON TD9636_STAGE TD9636_WIND TD9636_PRES TD9635_LAT TD9635_LON TD9635_WIND TD9635_PRES TD9635_ROCI NEUMANN_LAT NEUMANN_LON NEUMANN_CLASS NEUMANN_WIND NEUMANN_PRES MLC_LAT MLC_LON MLC_CLASS MLC_WIND MLC_PRES USA_GUST BOM_GUST BOM_GUST_PER REUNION_GUST REUNION_GUST_PER USA_SEAHGT USA_SEARAD_NE USA_SEARAD_SE USA_SEARAD_SW USA_SEARAD_NW STORM_SPEED STORM_DIR
1982150N13087 1982 31 NI BB NOT_NAMED 1982-05-30 02:00:00 NR 13.1000 87.3000 main 665 665 __________O___ -1 13.1000 87.3000 0 7 70
1982150N13087 1982 31 NI BB NOT_NAMED 1982-05-30 03:00:00 NR 13.1402 87.4125 main 673 673 __________P___ -1 13.1402 87.4125 0 7 72
1982150N13087 1982 31 NI BB NOT_NAMED 1982-05-30 06:00:00 NR 13.2432 87.7587 main 694 685 O_________P___ jtwc_io IO021982 13.2000 87.8000 30 -1 13.2576 87.7449 0 7 72
1982150N13087 1982 31 NI BB NOT_NAMED 1982-05-30 09:00:00 NR 13.3423 88.0540 main 704 695 P_________P___ IO021982 13.2975 88.0450 32 -1 13.3646 88.0585 0 6 71
1982150N13087 1982 31 NI BB NOT_NAMED 1982-05-30 12:00:00 NR 13.4308 88.3222 main 698 673 O_________P___ jtwc_io IO021982 13.4000 88.3000 35 0 13.4539 88.3388 0 5 71
1982150N13087 1982 31 NI BB NOT_NAMED 1982-05-30 14:00:00 NR 13.4861 88.4888 main 673 664 P_________O___ IO021982 13.4721 88.4775 36 -1 13.5000 88.5000 0 5 71
1982150N13087 1982 31 NI BB NOT_NAMED 1982-05-30 15:00:00 NR 13.5130 88.5683 main 664 639 P_________P___ IO021982 13.5075 88.5650 37 -1 13.5184 88.5715 0 4 71
1982150N13087 1982 31 NI BB NOT_NAMED 1982-05-30 18:00:00 NR 13.5821 88.7785 main 639 630 O_________P___ jtwc_io IO021982 13.6000 88.8000 40 0 13.5641 88.7570 0 4 72
1982150N13087 1982 31 NI BB NOT_NAMED 1982-05-30 21:00:00 NR 13.6262 88.9341 main 630 605 P_________P___ IO021982 13.6349 88.9501 42 -1 13.6176 88.9181 0 3 68
1982150N13087 1982 31 NI BB NOT_NAMED 1982-05-31 00:00:00 NR 13.7034 89.0898 main 605 591 O_________P___ jtwc_io IO021982 13.7000 89.1000 45 0 13.7068 89.0796 0 4 58
1982150N13087 1982 31 NI BB NOT_NAMED 1982-05-31 02:00:00 NR 13.7994 89.2254 main 591 576 P_________O___ IO021982 13.7988 89.2509 46 -1 13.8000 89.2000 0 5 53
1982150N13087 1982 31 NI BB NOT_NAMED 1982-05-31 03:00:00 NR 13.8650 89.3120 main 576 537 P_________P___ IO021982 13.8625 89.3350 47 -1 13.8674 89.2890 0 7 49
1982150N13087 1982 31 NI BB NOT_NAMED 1982-05-31 06:00:00 NR 14.1073 89.5897 main 537 495 O_________P___ jtwc_io IO021982 14.1000 89.6000 50 0 14.1146 89.5794 0 8 46
1982150N13087 1982 31 NI BB NOT_NAMED 1982-05-31 09:00:00 NR 14.3988 89.8767 main 495 463 P_________P___ IO021982 14.3926 89.8874 52 -1 14.4050 89.8661 0 8 40
1982150N13087 1982 31 NI BB NOT_NAMED 1982-05-31 12:00:00 NR 14.7036 90.0996 main 463 446 O_________P___ jtwc_io IO021982 14.7000 90.1000 55 0 14.7073 90.0992 0 7 30
1982150N13087 1982 31 NI BB NOT_NAMED 1982-05-31 14:00:00 NR 14.8873 90.1752 main 446 443 P_________O___ IO021982 14.8745 90.1505 55 -1 14.9000 90.2000 0 6 17
1982150N13087 1982 31 NI BB NOT_NAMED 1982-05-31 15:00:00 NR 14.9708 90.1851 main 443 437 P_________P___ IO021982 14.9574 90.1526 55 -1 14.9841 90.2176 0 5 358
1982150N13087 1982 31 NI BB NOT_NAMED 1982-05-31 18:00:00 NR 15.2133 90.1490 main 448 444 O_________P___ jtwc_io IO021982 15.2000 90.1000 55 0 15.2265 90.1979 0 5 345
1982150N13087 1982 31 NI BB NOT_NAMED 1982-05-31 21:00:00 NR 15.4595 90.0556 main 442 442 P_________P___ IO021982 15.4650 90.0076 50 -1 15.4541 90.1037 0 5 337
1982150N13087 1982 31 NI BB NOT_NAMED 1982-06-01 00:00:00 NR 15.6833 89.9393 main 461 460 O_________P___ jtwc_io IO021982 15.7000 89.9000 45 0 15.6666 89.9787 0 5 334
1982150N13087 1982 31 NI BB NOT_NAMED 1982-06-01 02:00:00 NR 15.8052 89.8794 main 460 460 P_________O___ IO021982 15.8104 89.8587 41 -1 15.8000 89.9000 0 4 339
1982150N13087 1982 31 NI BB NOT_NAMED 1982-06-01 03:00:00 NR 15.8606 89.8624 main 460 460 P_________P___ IO021982 15.8575 89.8425 40 -1 15.8638 89.8824 0 3 345
1982150N13087 1982 31 NI BB NOT_NAMED 1982-06-01 06:00:00 NR 16.0218 89.8181 main 470 470 O_________P___ jtwc_io IO021982 16.0000 89.8000 35 0 16.0437 89.8361 0 4 345
1982150N13087 1982 31 NI BB NOT_NAMED 1982-06-01 09:00:00 NR 16.2030 89.7712 main 470 470 P_________P___ IO021982 16.1925 89.7500 32 -1 16.2136 89.7924 0 4 346
1982150N13087 1982 31 NI BB NOT_NAMED 1982-06-01 12:00:00 NR 16.3914 89.7210 main 482 482 O_________P___ jtwc_io IO021982 16.4000 89.7000 XX 30 -5 16.3828 89.7420 0 4 346
1982150N13087 1982 31 NI BB NOT_NAMED 1982-06-01 14:00:00 NR 16.5167 89.6860 main 483 483 P_________O___ IO021982 16.5333 89.6721 XX 28 -5 16.5000 89.7000 0 4 345
1982150N13087 1982 31 NI BB NOT_NAMED 1982-06-01 15:00:00 NR 16.5823 89.6666 main 485 485 P_________P___ IO021982 16.6000 89.6575 XX 27 -5 16.5645 89.6758 0 4 342
1982150N13087 1982 31 NI BB NOT_NAMED 1982-06-01 18:00:00 NR 16.7821 89.5966 main 492 468 O_________P___ jtwc_io IO021982 16.8000 89.6000 XX 25 -5 16.7642 89.5933 0 4 339
1982150N13087 1982 31 NI BB NOT_NAMED 1982-06-01 21:00:00 NR 16.9877 89.5054 main 468 445 P_________P___ IO021982 17.0075 89.5150 XX 27 -5 16.9680 89.4958 0 5 334
1982150N13087 1982 31 NI BB NOT_NAMED 1982-06-02 00:00:00 NR 17.1849 89.3916 main 445 429 O_________P___ jtwc_io IO021982 17.2000 89.4000 XX 30 -5 17.1697 89.3833 0 4 328
1982150N13087 1982 31 NI BB NOT_NAMED 1982-06-02 02:00:00 NR 17.3012 89.3039 main 429 429 P_________O___ IO021982 17.3025 89.3079 XX 30 -5 17.3000 89.3000 1 30 4 323
1982150N13087 1982 31 NI BB NOT_NAMED 1982-06-02 03:00:00 NR 17.3552 89.2583 main 421 398 P_________P___ IO021982 17.3500 89.2575 XX 30 -5 17.3604 89.2591 1 30 4 320
1982150N13087 1982 31 NI BB NOT_NAMED 1982-06-02 06:00:00 NR 17.5179 89.1133 main 398 375 O_________P___ jtwc_io IO021982 17.5000 89.1000 XX 30 -5 17.5358 89.1265 1 31 4 321
1982150N13087 1982 31 NI BB NOT_NAMED 1982-06-02 09:00:00 NR 17.7035 88.9645 main 375 344 P_________P___ IO021982 17.7000 88.9500 XX 32 -5 17.7069 88.9790 1 32 5 322
1982150N13087 1982 31 NI BB NOT_NAMED 1982-06-02 12:00:00 NR 17.8901 88.8083 main 344 329 O_________P___ jtwc_io IO021982 17.9000 88.8000 XX 35 -5 17.8802 88.8165 1 34 5 320
1982150N13087 1982 31 NI BB NOT_NAMED 1982-06-02 14:00:00 NR 17.9985 88.7027 main 329 329 P_________O___ IO021982 17.9970 88.7053 XX 36 -5 18.0000 88.7000 2 35 4 317
1982150N13087 1982 31 NI BB NOT_NAMED 1982-06-02 15:00:00 NR 18.0492 88.6511 main 329 298 P_________P___ IO021982 18.0425 88.6574 XX 37 -5 18.0559 88.6448 2 35 4 316
1982150N13087 1982 31 NI BB NOT_NAMED 1982-06-02 18:00:00 NR 18.2130 88.4851 main 298 268 O_________P___ jtwc_io IO021982 18.2000 88.5000 XX 40 -5 18.2260 88.4703 2 38 5 318
1982150N13087 1982 31 NI BB NOT_NAMED 1982-06-02 21:00:00 NR 18.4235 88.3001 main 268 230 P_________P___ IO021982 18.4349 88.3224 XX 42 -5 18.4120 88.2777 2 40 6 320
1982150N13087 1982 31 NI BB NOT_NAMED 1982-06-03 00:00:00 NR 18.6648 88.0805 main 230 206 O_________P___ jtwc_io IO021982 18.7000 88.1000 XX 45 -5 18.6296 88.0610 2 43 7 318
1982150N13087 1982 31 NI BB NOT_NAMED 1982-06-03 02:00:00 NR 18.8279 87.9079 main 206 191 P_________O___ IO021982 18.8558 87.9157 XX 48 -5 18.8000 87.9000 2 45 7 315
1982150N13087 1982 31 NI BB NOT_NAMED 1982-06-03 03:00:00 NR 18.9121 87.8159 main 191 145 P_________P___ IO021982 18.9350 87.8149 XX 50 -5 18.8892 87.8170 2 45 8 315
1982150N13087 1982 31 NI BB NOT_NAMED 1982-06-03 06:00:00 NR 19.1933 87.5237 main 145 100 O_________P___ jtwc_io IO021982 19.2000 87.5000 XX 55 -5 19.1866 87.5473 2 48 8 318
1982150N13087 1982 31 NI BB NOT_NAMED 1982-06-03 09:00:00 NR 19.5245 87.2284 main 100 49 P_________P___ IO021982 19.5199 87.2073 XX 55 -5 19.5290 87.2495 2 50 9 321
1982150N13087 1982 31 NI BB NOT_NAMED 1982-06-03 12:00:00 NR 19.9083 86.9135 main 49 11 O_________P___ jtwc_io IO021982 19.9000 86.9000 XX 55 -5 19.9166 86.9270 2 53 10 323
1982150N13087 1982 31 NI BB NOT_NAMED 1982-06-03 14:00:00 NR 20.1894 86.6899 main 11 0 P_________O___ IO021982 20.1787 86.6799 XX 51 -5 20.2000 86.7000 4 55 11 323
1982150N13087 1982 31 NI BB NOT_NAMED 1982-06-03 15:00:00 NR 20.3357 86.5706 main 0 0 P_________P___ IO021982 20.3274 86.5648 XX 50 -5 20.3440 86.5765 4 53 12 323
1982150N13087 1982 31 NI BB NOT_NAMED 1982-06-03 18:00:00 NR 20.8039 86.1929 main 0 0 O_________P___ jtwc_io IO021982 20.8000 86.2000 XX 45 -5 20.8078 86.1858 4 50 12 323
1982150N13087 1982 31 NI BB NOT_NAMED 1982-06-03 21:00:00 NR 21.2975 85.7907 main 0 0 P_________P___ IO021982 21.2851 85.7925 XX 42 -5 21.3100 85.7890 4 46 13 324
1982150N13087 1982 31 NI BB NOT_NAMED 1982-06-04 00:00:00 NR 21.8193 85.4088 main 0 0 O_________P___ jtwc_io IO021982 21.8000 85.4000 XX 40 -5 21.8387 85.4176 4 42 13 328
1982150N13087 1982 31 NI BB NOT_NAMED 1982-06-04 02:00:00 NR 22.1825 85.1906 main 0 0 P_________O___ IO021982 22.1592 85.1780 XX 36 -5 22.2000 85.2000 2 40 12 332
1982150N13087 1982 31 NI BB NOT_NAMED 1982-06-04 03:00:00 NR 22.3663 85.0931 main 0 0 P_________P___ IO021982 22.3425 85.0778 XX 35 -5 22.3821 85.1033 2 38 12 336
1982150N13087 1982 31 NI BB NOT_NAMED 1982-06-04 06:00:00 NR 22.9213 84.8342 main 0 0 O_________P___ jtwc_io IO021982 22.9000 84.8000 XX 30 -5 22.9319 84.8514 2 33 12 339
1982150N13087 1982 31 NI BB NOT_NAMED 1982-06-04 08:00:00 NR 23.3000 84.7000 main 0 __________O___ IO021982 XX -5 23.3000 84.7000 6 30 12 341

About IBTrACS Database

This database is a web-friendly format of International Best Track Archive for Climate Stewardship (IBTrACS), a global best track data archive curated by NOAA dating back to 1842.

Updated: 2021-11-26